sensor_id;sensor_type;location;lat;lon;timestamp;pressure;altitude;pressure_sealevel;temperature;humidity
56270;BME280;42176;43.240;27.880;2024-01-30T00:01:50;102311.06;;;-0.24;100.00
56270;BME280;42176;43.240;27.880;2024-01-30T00:03:50;102310.81;;;-0.28;100.00
56270;BME280;42176;43.240;27.880;2024-01-30T00:05:51;102329.94;;;0.19;100.00
56270;BME280;42176;43.240;27.880;2024-01-30T00:07:52;102335.38;;;0.55;100.00
56270;BME280;42176;43.240;27.880;2024-01-30T00:09:53;102333.50;;;1.18;100.00
56270;BME280;42176;43.240;27.880;2024-01-30T00:11:53;102316.31;;;0.56;100.00
56270;BME280;42176;43.240;27.880;2024-01-30T00:13:54;102319.72;;;0.07;100.00
56270;BME280;42176;43.240;27.880;2024-01-30T00:15:58;102345.31;;;-0.18;100.00
56270;BME280;42176;43.240;27.880;2024-01-30T00:17:58;102325.53;;;-0.29;100.00
56270;BME280;42176;43.240;27.880;2024-01-30T00:19:59;102325.88;;;0.24;100.00
56270;BME280;42176;43.240;27.880;2024-01-30T00:22:00;102330.84;;;1.00;100.00
56270;BME280;42176;43.240;27.880;2024-01-30T00:24:00;102329.84;;;0.82;100.00
56270;BME280;42176;43.240;27.880;2024-01-30T00:26:01;102332.25;;;0.29;100.00
56270;BME280;42176;43.240;27.880;2024-01-30T00:28:01;102323.91;;;-0.12;100.00
56270;BME280;42176;43.240;27.880;2024-01-30T00:30:02;102310.25;;;-0.23;100.00
56270;BME280;42176;43.240;27.880;2024-01-30T00:32:03;102320.06;;;0.13;100.00
56270;BME280;42176;43.240;27.880;2024-01-30T00:34:04;102338.19;;;1.08;100.00
56270;BME280;42176;43.240;27.880;2024-01-30T00:36:05;102341.91;;;0.80;100.00
56270;BME280;42176;43.240;27.880;2024-01-30T00:38:06;102329.78;;;0.16;100.00
56270;BME280;42176;43.240;27.880;2024-01-30T00:40:08;102344.06;;;-0.39;100.00
56270;BME280;42176;43.240;27.880;2024-01-30T00:42:10;102326.59;;;-0.10;100.00
56270;BME280;42176;43.240;27.880;2024-01-30T00:44:11;102323.09;;;0.21;100.00
56270;BME280;42176;43.240;27.880;2024-01-30T00:46:11;102340.81;;;1.08;100.00
56270;BME280;42176;43.240;27.880;2024-01-30T00:48:12;102326.38;;;0.33;100.00
56270;BME280;42176;43.240;27.880;2024-01-30T00:50:13;102315.03;;;0.01;100.00
56270;BME280;42176;43.240;27.880;2024-01-30T00:52:13;102319.25;;;-0.18;100.00
56270;BME280;42176;43.240;27.880;2024-01-30T00:54:14;102329.56;;;-0.19;100.00
56270;BME280;42176;43.240;27.880;2024-01-30T00:56:14;102311.84;;;0.22;100.00
56270;BME280;42176;43.240;27.880;2024-01-30T00:58:18;102322.19;;;1.01;100.00
56270;BME280;42176;43.240;27.880;2024-01-30T01:00:19;102303.47;;;0.27;100.00
56270;BME280;42176;43.240;27.880;2024-01-30T01:02:21;102320.44;;;0.04;100.00
56270;BME280;42176;43.240;27.880;2024-01-30T01:04:21;102319.25;;;-0.18;100.00
56270;BME280;42176;43.240;27.880;2024-01-30T01:06:22;102312.38;;;-0.16;100.00
56270;BME280;42176;43.240;27.880;2024-01-30T01:08:23;102304.28;;;0.26;100.00
56270;BME280;42176;43.240;27.880;2024-01-30T01:10:23;102312.78;;;1.05;100.00
56270;BME280;42176;43.240;27.880;2024-01-30T01:12:24;102296.41;;;0.41;100.00
56270;BME280;42176;43.240;27.880;2024-01-30T01:14:24;102317.19;;;0.08;100.00
56270;BME280;42176;43.240;27.880;2024-01-30T01:16:25;102336.13;;;-0.26;100.00
56270;BME280;42176;43.240;27.880;2024-01-30T01:18:26;102312.25;;;-0.49;100.00
56270;BME280;42176;43.240;27.880;2024-01-30T01:20:27;102318.81;;;0.06;100.00
56270;BME280;42176;43.240;27.880;2024-01-30T01:22:28;102317.75;;;0.51;100.00
56270;BME280;42176;43.240;27.880;2024-01-30T01:24:31;102326.94;;;0.92;100.00
56270;BME280;42176;43.240;27.880;2024-01-30T01:26:31;102304.09;;;0.07;100.00
56270;BME280;42176;43.240;27.880;2024-01-30T01:28:32;102326.69;;;-0.09;100.00
56270;BME280;42176;43.240;27.880;2024-01-30T01:30:32;102304.78;;;-0.42;100.00
56270;BME280;42176;43.240;27.880;2024-01-30T01:32:33;102276.34;;;0.09;100.00
56270;BME280;42176;43.240;27.880;2024-01-30T01:34:34;102280.34;;;0.83;100.00
56270;BME280;42176;43.240;27.880;2024-01-30T01:36:34;102282.03;;;0.66;100.00
56270;BME280;42176;43.240;27.880;2024-01-30T01:38:35;102276.03;;;0.03;100.00
56270;BME280;42176;43.240;27.880;2024-01-30T01:40:35;102283.00;;;-0.28;100.00
56270;BME280;42176;43.240;27.880;2024-01-30T01:42:36;102269.72;;;-0.18;100.00
56270;BME280;42176;43.240;27.880;2024-01-30T01:44:36;102287.72;;;0.26;100.00
56270;BME280;42176;43.240;27.880;2024-01-30T01:46:37;102289.78;;;0.98;100.00
56270;BME280;42176;43.240;27.880;2024-01-30T01:48:37;102272.53;;;0.19;100.00
56270;BME280;42176;43.240;27.880;2024-01-30T01:50:41;102292.06;;;-0.06;100.00
56270;BME280;42176;43.240;27.880;2024-01-30T01:52:42;102273.13;;;-0.34;100.00
56270;BME280;42176;43.240;27.880;2024-01-30T01:54:43;102276.47;;;-0.36;100.00
56270;BME280;42176;43.240;27.880;2024-01-30T01:56:43;102287.19;;;0.00;100.00
56270;BME280;42176;43.240;27.880;2024-01-30T01:58:45;102303.75;;;0.82;100.00
56270;BME280;42176;43.240;27.880;2024-01-30T02:00:46;102277.88;;;0.37;100.00
56270;BME280;42176;43.240;27.880;2024-01-30T02:02:47;102279.47;;;-0.13;100.00
56270;BME280;42176;43.240;27.880;2024-01-30T02:04:48;102295.16;;;-0.28;100.00
56270;BME280;42176;43.240;27.880;2024-01-30T02:06:49;102296.25;;;-0.55;100.00
56270;BME280;42176;43.240;27.880;2024-01-30T02:08:50;102284.81;;;-0.27;100.00
56270;BME280;42176;43.240;27.880;2024-01-30T02:10:50;102279.19;;;0.45;100.00
56270;BME280;42176;43.240;27.880;2024-01-30T02:12:51;102294.09;;;0.97;100.00
56270;BME280;42176;43.240;27.880;2024-01-30T02:14:52;102293.09;;;0.12;100.00
56270;BME280;42176;43.240;27.880;2024-01-30T02:16:53;102294.97;;;-0.17;100.00
56270;BME280;42176;43.240;27.880;2024-01-30T02:18:54;102301.47;;;-0.40;100.00
56270;BME280;42176;43.240;27.880;2024-01-30T02:20:56;102296.81;;;-0.60;100.00
56270;BME280;42176;43.240;27.880;2024-01-30T02:22:59;102292.06;;;-0.06;100.00
56270;BME280;42176;43.240;27.880;2024-01-30T02:25:04;102246.66;;;0.55;100.00
56270;BME280;42176;43.240;27.880;2024-01-30T02:27:05;102303.25;;;0.72;100.00
56270;BME280;42176;43.240;27.880;2024-01-30T02:29:05;102297.63;;;0.17;100.00
56270;BME280;42176;43.240;27.880;2024-01-30T02:31:06;102270.50;;;-0.19;100.00
56270;BME280;42176;43.240;27.880;2024-01-30T02:33:07;102308.56;;;-0.37;100.00
56270;BME280;42176;43.240;27.880;2024-01-30T02:35:07;102306.59;;;0.05;100.00
56270;BME280;42176;43.240;27.880;2024-01-30T02:37:08;102296.88;;;0.67;100.00
56270;BME280;42176;43.240;27.880;2024-01-30T02:39:09;102303.91;;;0.85;100.00
56270;BME280;42176;43.240;27.880;2024-01-30T02:41:10;102295.94;;;0.17;100.00
56270;BME280;42176;43.240;27.880;2024-01-30T02:43:10;102289.28;;;-0.09;100.00
56270;BME280;42176;43.240;27.880;2024-01-30T02:45:11;102285.84;;;-0.40;100.00
56270;BME280;42176;43.240;27.880;2024-01-30T02:47:12;102295.84;;;-0.16;100.00
56270;BME280;42176;43.240;27.880;2024-01-30T02:49:13;102313.84;;;0.42;100.00
56270;BME280;42176;43.240;27.880;2024-01-30T02:51:13;102316.91;;;0.83;100.00
56270;BME280;42176;43.240;27.880;2024-01-30T02:53:14;102294.22;;;0.18;100.00
56270;BME280;42176;43.240;27.880;2024-01-30T02:55:14;102291.22;;;-0.52;100.00
56270;BME280;42176;43.240;27.880;2024-01-30T02:57:17;102310.47;;;-0.50;100.00
56270;BME280;42176;43.240;27.880;2024-01-30T02:59:18;102297.63;;;0.00;100.00
56270;BME280;42176;43.240;27.880;2024-01-30T03:01:18;102305.06;;;0.73;100.00
56270;BME280;42176;43.240;27.880;2024-01-30T03:03:19;102308.16;;;0.66;100.00
56270;BME280;42176;43.240;27.880;2024-01-30T03:05:19;102290.06;;;0.05;100.00
56270;BME280;42176;43.240;27.880;2024-01-30T03:07:20;102307.94;;;-0.33;100.00
56270;BME280;42176;43.240;27.880;2024-01-30T03:09:21;102318.72;;;-0.57;100.00
56270;BME280;42176;43.240;27.880;2024-01-30T03:11:22;102313.22;;;-0.17;100.00
56270;BME280;42176;43.240;27.880;2024-01-30T03:13:22;102330.63;;;0.31;100.00
56270;BME280;42176;43.240;27.880;2024-01-30T03:15:25;102316.75;;;0.32;100.00
56270;BME280;42176;43.240;27.880;2024-01-30T03:17:25;102321.03;;;-0.17;100.00
56270;BME280;42176;43.240;27.880;2024-01-30T03:19:26;102325.72;;;-0.71;100.00
56270;BME280;42176;43.240;27.880;2024-01-30T03:21:27;102322.28;;;-0.70;100.00
56270;BME280;42176;43.240;27.880;2024-01-30T03:23:27;102297.59;;;-0.92;100.00
56270;BME280;42176;43.240;27.880;2024-01-30T03:25:28;102326.81;;;-0.37;100.00
56270;BME280;42176;43.240;27.880;2024-01-30T03:27:28;102304.47;;;0.46;100.00
56270;BME280;42176;43.240;27.880;2024-01-30T03:29:29;102299.66;;;0.37;100.00
56270;BME280;42176;43.240;27.880;2024-01-30T03:31:29;102311.88;;;-0.25;100.00
56270;BME280;42176;43.240;27.880;2024-01-30T03:33:30;102301.91;;;-0.47;100.00
56270;BME280;42176;43.240;27.880;2024-01-30T03:35:31;102303.53;;;-0.64;100.00
56270;BME280;42176;43.240;27.880;2024-01-30T03:37:31;102319.06;;;-0.81;100.00
56270;BME280;42176;43.240;27.880;2024-01-30T03:39:32;102309.19;;;-0.26;100.00
56270;BME280;42176;43.240;27.880;2024-01-30T03:41:32;102323.97;;;0.69;100.00
56270;BME280;42176;43.240;27.880;2024-01-30T03:43:33;102311.66;;;0.50;100.00
56270;BME280;42176;43.240;27.880;2024-01-30T03:45:33;102286.84;;;-0.06;100.00
56270;BME280;42176;43.240;27.880;2024-01-30T03:47:34;102298.84;;;-0.25;100.00
56270;BME280;42176;43.240;27.880;2024-01-30T03:49:35;102300.31;;;0.66;100.00
56270;BME280;42176;43.240;27.880;2024-01-30T03:51:35;102284.97;;;1.94;100.00
56270;BME280;42176;43.240;27.880;2024-01-30T03:53:36;102281.78;;;0.45;100.00
56270;BME280;42176;43.240;27.880;2024-01-30T03:55:36;102282.84;;;-0.61;100.00
56270;BME280;42176;43.240;27.880;2024-01-30T03:57:37;102269.84;;;-0.46;100.00
56270;BME280;42176;43.240;27.880;2024-01-30T03:59:37;102283.59;;;-0.02;100.00
56270;BME280;42176;43.240;27.880;2024-01-30T04:01:38;102280.09;;;0.29;100.00
56270;BME280;42176;43.240;27.880;2024-01-30T04:03:38;102288.06;;;0.82;100.00
56270;BME280;42176;43.240;27.880;2024-01-30T04:05:39;102302.84;;;0.48;100.00
56270;BME280;42176;43.240;27.880;2024-01-30T04:07:39;102281.28;;;-0.12;100.00
56270;BME280;42176;43.240;27.880;2024-01-30T04:09:40;102307.66;;;-0.53;100.00
56270;BME280;42176;43.240;27.880;2024-01-30T04:11:41;102301.63;;;-0.37;100.00
56270;BME280;42176;43.240;27.880;2024-01-30T04:13:42;102285.28;;;0.12;100.00
56270;BME280;42176;43.240;27.880;2024-01-30T04:15:43;102288.88;;;0.64;100.00
56270;BME280;42176;43.240;27.880;2024-01-30T04:17:45;102295.94;;;0.17;100.00
56270;BME280;42176;43.240;27.880;2024-01-30T04:19:46;102299.75;;;-0.39;100.00
56270;BME280;42176;43.240;27.880;2024-01-30T04:21:46;102304.50;;;-0.62;100.00
56270;BME280;42176;43.240;27.880;2024-01-30T04:23:47;102291.41;;;-0.79;100.00
56270;BME280;42176;43.240;27.880;2024-01-30T04:25:48;102284.56;;;-0.47;100.00
56270;BME280;42176;43.240;27.880;2024-01-30T04:27:49;102280.09;;;-0.03;100.00
56270;BME280;42176;43.240;27.880;2024-01-30T04:29:50;102269.97;;;0.68;100.00
56270;BME280;42176;43.240;27.880;2024-01-30T04:31:50;102277.94;;;0.22;100.00
56270;BME280;42176;43.240;27.880;2024-01-30T04:33:51;102306.72;;;-0.08;100.00
56270;BME280;42176;43.240;27.880;2024-01-30T04:35:51;102278.47;;;-0.32;100.00
56270;BME280;42176;43.240;27.880;2024-01-30T04:37:52;102284.13;;;-0.39;100.00
56270;BME280;42176;43.240;27.880;2024-01-30T04:39:53;102297.63;;;0.00;100.00
56270;BME280;42176;43.240;27.880;2024-01-30T04:41:54;102308.31;;;0.69;100.00
56270;BME280;42176;43.240;27.880;2024-01-30T04:43:54;102304.28;;;0.43;100.00
56270;BME280;42176;43.240;27.880;2024-01-30T04:45:55;102303.38;;;-0.06;100.00
56270;BME280;42176;43.240;27.880;2024-01-30T04:47:55;102316.72;;;-0.76;100.00
56270;BME280;42176;43.240;27.880;2024-01-30T04:49:56;102313.88;;;-0.51;100.00
56270;BME280;42176;43.240;27.880;2024-01-30T04:51:57;102319.94;;;-0.05;100.00
56270;BME280;42176;43.240;27.880;2024-01-30T04:53:58;102315.81;;;0.80;100.00
56270;BME280;42176;43.240;27.880;2024-01-30T04:55:59;102317.88;;;0.21;100.00
56270;BME280;42176;43.240;27.880;2024-01-30T04:57:59;102314.56;;;-0.38;100.00
56270;BME280;42176;43.240;27.880;2024-01-30T05:00:00;102311.06;;;-0.84;100.00
56270;BME280;42176;43.240;27.880;2024-01-30T05:02:00;102321.91;;;-0.31;100.00
56270;BME280;42176;43.240;27.880;2024-01-30T05:04:01;102315.31;;;0.06;100.00
56270;BME280;42176;43.240;27.880;2024-01-30T05:06:03;102308.09;;;0.81;100.00
56270;BME280;42176;43.240;27.880;2024-01-30T05:08:04;102308.50;;;0.24;100.00
56270;BME280;42176;43.240;27.880;2024-01-30T05:10:05;102295.53;;;-0.37;100.00
56270;BME280;42176;43.240;27.880;2024-01-30T05:12:07;102295.72;;;-0.94;100.00
56270;BME280;42176;43.240;27.880;2024-01-30T05:14:08;102300.19;;;-0.47;100.00
56270;BME280;42176;43.240;27.880;2024-01-30T05:16:12;102310.19;;;-0.08;100.00
56270;BME280;42176;43.240;27.880;2024-01-30T05:18:13;102298.53;;;0.65;100.00
56270;BME280;42176;43.240;27.880;2024-01-30T05:20:14;102297.94;;;0.06;100.00
56270;BME280;42176;43.240;27.880;2024-01-30T05:22:14;102288.97;;;-0.46;100.00
56270;BME280;42176;43.240;27.880;2024-01-30T05:24:16;102284.31;;;-0.66;100.00
56270;BME280;42176;43.240;27.880;2024-01-30T05:26:16;102287.59;;;-0.24;100.00
56270;BME280;42176;43.240;27.880;2024-01-30T05:28:17;102279.06;;;0.10;100.00
56270;BME280;42176;43.240;27.880;2024-01-30T05:30:17;102292.81;;;0.39;100.00
56270;BME280;42176;43.240;27.880;2024-01-30T05:32:19;102311.56;;;0.82;100.00
56270;BME280;42176;43.240;27.880;2024-01-30T05:34:19;102315.94;;;0.33;100.00
56270;BME280;42176;43.240;27.880;2024-01-30T05:36:20;102257.00;;;-0.58;100.00
56270;BME280;42176;43.240;27.880;2024-01-30T05:38:22;102335.44;;;-0.68;100.00
56270;BME280;42176;43.240;27.880;2024-01-30T05:40:22;102332.34;;;-0.16;100.00
56270;BME280;42176;43.240;27.880;2024-01-30T05:42:23;102314.94;;;0.14;100.00
56270;BME280;42176;43.240;27.880;2024-01-30T05:44:23;102317.94;;;0.54;100.00
56270;BME280;42176;43.240;27.880;2024-01-30T05:46:24;102324.22;;;0.90;100.00
56270;BME280;42176;43.240;27.880;2024-01-30T05:48:24;102313.81;;;0.26;100.00
56270;BME280;42176;43.240;27.880;2024-01-30T05:50:25;102328.22;;;-0.42;100.00
56270;BME280;42176;43.240;27.880;2024-01-30T05:52:26;102311.78;;;-0.41;100.00
56270;BME280;42176;43.240;27.880;2024-01-30T05:54:27;102326.22;;;-0.02;100.00
56270;BME280;42176;43.240;27.880;2024-01-30T05:56:27;102340.28;;;0.65;100.00
56270;BME280;42176;43.240;27.880;2024-01-30T05:58:29;102328.34;;;0.37;100.00
56270;BME280;42176;43.240;27.880;2024-01-30T06:00:29;102337.19;;;-0.07;100.00
56270;BME280;42176;43.240;27.880;2024-01-30T06:02:30;102340.00;;;-0.49;100.00
56270;BME280;42176;43.240;27.880;2024-01-30T06:04:31;102316.69;;;-0.01;100.00
56270;BME280;42176;43.240;27.880;2024-01-30T06:06:32;102334.91;;;0.45;100.00
56270;BME280;42176;43.240;27.880;2024-01-30T06:08:32;102331.41;;;0.62;100.00
56270;BME280;42176;43.240;27.880;2024-01-30T06:10:33;102328.44;;;0.07;100.00
56270;BME280;42176;43.240;27.880;2024-01-30T06:12:33;102365.34;;;-0.32;100.00
56270;BME280;42176;43.240;27.880;2024-01-30T06:14:34;102374.06;;;-0.46;100.00
56270;BME280;42176;43.240;27.880;2024-01-30T06:16:34;102374.22;;;0.02;100.00
56270;BME280;42176;43.240;27.880;2024-01-30T06:18:35;102374.31;;;0.35;100.00
56270;BME280;42176;43.240;27.880;2024-01-30T06:20:35;102375.69;;;0.60;100.00
56270;BME280;42176;43.240;27.880;2024-01-30T06:22:36;102393.19;;;1.11;100.00
56270;BME280;42176;43.240;27.880;2024-01-30T06:24:36;102382.88;;;0.64;100.00
56270;BME280;42176;43.240;27.880;2024-01-30T06:26:37;102376.88;;;0.19;100.00
56270;BME280;42176;43.240;27.880;2024-01-30T06:28:38;102380.88;;;-0.48;100.00
56270;BME280;42176;43.240;27.880;2024-01-30T06:30:38;102365.94;;;-0.06;100.00
56270;BME280;42176;43.240;27.880;2024-01-30T06:32:39;102381.03;;;0.30;100.00
56270;BME280;42176;43.240;27.880;2024-01-30T06:34:41;102378.47;;;0.63;100.00
56270;BME280;42176;43.240;27.880;2024-01-30T06:36:41;102358.09;;;1.22;100.00
56270;BME280;42176;43.240;27.880;2024-01-30T06:38:42;102365.75;;;0.69;100.00
56270;BME280;42176;43.240;27.880;2024-01-30T06:40:42;102358.94;;;0.08;100.00
56270;BME280;42176;43.240;27.880;2024-01-30T06:42:43;102358.59;;;-0.28;100.00
56270;BME280;42176;43.240;27.880;2024-01-30T06:44:43;102378.19;;;-0.35;100.00
56270;BME280;42176;43.240;27.880;2024-01-30T06:46:44;102389.66;;;0.14;100.00
56270;BME280;42176;43.240;27.880;2024-01-30T06:48:45;102398.25;;;0.91;100.00
56270;BME280;42176;43.240;27.880;2024-01-30T06:50:45;102384.94;;;0.86;100.00
56270;BME280;42176;43.240;27.880;2024-01-30T06:52:46;102366.44;;;0.19;100.00
56270;BME280;42176;43.240;27.880;2024-01-30T06:54:47;102395.19;;;-0.26;100.00
56270;BME280;42176;43.240;27.880;2024-01-30T06:56:47;102375.81;;;0.30;100.00
56270;BME280;42176;43.240;27.880;2024-01-30T06:58:49;102384.53;;;0.62;100.00
56270;BME280;42176;43.240;27.880;2024-01-30T07:00:51;102382.25;;;1.18;100.00
56270;BME280;42176;43.240;27.880;2024-01-30T07:02:51;102379.63;;;0.68;100.00
56270;BME280;42176;43.240;27.880;2024-01-30T07:04:52;102378.19;;;0.10;100.00
56270;BME280;42176;43.240;27.880;2024-01-30T07:06:52;102386.63;;;-0.39;100.00
56270;BME280;42176;43.240;27.880;2024-01-30T07:08:53;102396.13;;;0.21;100.00
56270;BME280;42176;43.240;27.880;2024-01-30T07:10:54;102395.78;;;0.61;100.00
56270;BME280;42176;43.240;27.880;2024-01-30T07:12:55;102402.69;;;1.09;100.00
56270;BME280;42176;43.240;27.880;2024-01-30T07:14:56;102385.78;;;0.54;100.00
56270;BME280;42176;43.240;27.880;2024-01-30T07:16:56;102405.09;;;-0.21;100.00
56270;BME280;42176;43.240;27.880;2024-01-30T07:18:57;102394.03;;;-0.17;100.00
56270;BME280;42176;43.240;27.880;2024-01-30T07:20:58;102407.09;;;0.30;100.00
56270;BME280;42176;43.240;27.880;2024-01-30T07:22:58;102398.41;;;0.78;100.00
56270;BME280;42176;43.240;27.880;2024-01-30T07:24:59;102390.66;;;0.96;100.00
56270;BME280;42176;43.240;27.880;2024-01-30T07:27:00;102375.66;;;0.43;100.00
56270;BME280;42176;43.240;27.880;2024-01-30T07:29:01;102376.31;;;-0.22;100.00
56270;BME280;42176;43.240;27.880;2024-01-30T07:31:01;102398.34;;;-0.32;100.00
56270;BME280;42176;43.240;27.880;2024-01-30T07:33:02;102386.69;;;0.23;100.00
56270;BME280;42176;43.240;27.880;2024-01-30T07:35:03;102379.31;;;0.62;100.00
56270;BME280;42176;43.240;27.880;2024-01-30T07:37:04;102391.88;;;1.02;100.00
56270;BME280;42176;43.240;27.880;2024-01-30T07:39:04;102354.91;;;1.62;100.00
56270;BME280;42176;43.240;27.880;2024-01-30T07:41:05;102363.78;;;1.31;100.00
56270;BME280;42176;43.240;27.880;2024-01-30T07:43:05;102379.63;;;0.68;100.00
56270;BME280;42176;43.240;27.880;2024-01-30T07:45:06;102392.53;;;0.98;100.00
56270;BME280;42176;43.240;27.880;2024-01-30T07:47:07;102372.06;;;1.57;100.00
56270;BME280;42176;43.240;27.880;2024-01-30T07:49:08;102379.19;;;2.88;100.00
56270;BME280;42176;43.240;27.880;2024-01-30T07:51:08;102361.69;;;0.74;100.00
56270;BME280;42176;43.240;27.880;2024-01-30T07:53:09;102378.47;;;0.32;100.00
56270;BME280;42176;43.240;27.880;2024-01-30T07:55:09;102374.16;;;0.80;100.00
56270;BME280;42176;43.240;27.880;2024-01-30T07:57:10;102377.66;;;1.30;100.00
56270;BME280;42176;43.240;27.880;2024-01-30T07:59:11;102381.78;;;1.60;100.00
56270;BME280;42176;43.240;27.880;2024-01-30T08:01:11;102371.97;;;1.90;100.00
56270;BME280;42176;43.240;27.880;2024-01-30T08:03:12;102384.81;;;2.04;100.00
56270;BME280;42176;43.240;27.880;2024-01-30T08:05:13;102386.09;;;2.12;100.00
56270;BME280;42176;43.240;27.880;2024-01-30T08:07:15;102372.78;;;1.03;100.00
56270;BME280;42176;43.240;27.880;2024-01-30T08:09:17;102398.84;;;0.54;100.00
56270;BME280;42176;43.240;27.880;2024-01-30T08:11:20;102372.63;;;-0.11;100.00
56270;BME280;42176;43.240;27.880;2024-01-30T08:13:20;102373.91;;;-0.34;100.00
56270;BME280;42176;43.240;27.880;2024-01-30T08:15:21;102366.00;;;0.26;100.00
56270;BME280;42176;43.240;27.880;2024-01-30T08:17:21;102383.31;;;1.21;100.00
56270;BME280;42176;43.240;27.880;2024-01-30T08:19:22;102385.03;;;1.72;100.00
56270;BME280;42176;43.240;27.880;2024-01-30T08:21:23;102400.78;;;0.89;100.00
56270;BME280;42176;43.240;27.880;2024-01-30T08:23:24;102382.63;;;0.28;100.00
56270;BME280;42176;43.240;27.880;2024-01-30T08:25:25;102379.91;;;-0.05;100.00
56270;BME280;42176;43.240;27.880;2024-01-30T08:27:26;102387.31;;;0.19;100.00
56270;BME280;42176;43.240;27.880;2024-01-30T08:29:26;102379.47;;;0.82;100.00
56270;BME280;42176;43.240;27.880;2024-01-30T08:31:27;102380.63;;;1.89;100.00
56270;BME280;42176;43.240;27.880;2024-01-30T08:33:27;102388.94;;;1.64;100.00
56270;BME280;42176;43.240;27.880;2024-01-30T08:35:28;102374.41;;;1.01;100.00
56270;BME280;42176;43.240;27.880;2024-01-30T08:37:31;102386.28;;;0.63;100.00
56270;BME280;42176;43.240;27.880;2024-01-30T08:39:32;102386.56;;;1.17;100.00
56270;BME280;42176;43.240;27.880;2024-01-30T08:41:33;102408.81;;;1.60;100.00
56270;BME280;42176;43.240;27.880;2024-01-30T08:43:33;102376.47;;;2.11;100.00
56270;BME280;42176;43.240;27.880;2024-01-30T08:45:34;102384.97;;;2.07;100.00
56270;BME280;42176;43.240;27.880;2024-01-30T08:47:34;102391.16;;;1.21;100.00
56270;BME280;42176;43.240;27.880;2024-01-30T08:49:36;102400.66;;;0.40;100.00
56270;BME280;42176;43.240;27.880;2024-01-30T08:51:36;102387.94;;;0.61;100.00
56270;BME280;42176;43.240;27.880;2024-01-30T08:53:37;102394.16;;;1.13;100.00
56270;BME280;42176;43.240;27.880;2024-01-30T08:55:38;102391.09;;;1.89;100.00
56270;BME280;42176;43.240;27.880;2024-01-30T08:57:39;102391.25;;;1.23;100.00
56270;BME280;42176;43.240;27.880;2024-01-30T08:59:40;102384.66;;;0.65;100.00
56270;BME280;42176;43.240;27.880;2024-01-30T09:01:40;102384.53;;;0.62;100.00
56270;BME280;42176;43.240;27.880;2024-01-30T09:03:41;102386.81;;;1.39;100.00
56270;BME280;42176;43.240;27.880;2024-01-30T09:05:43;102387.06;;;2.32;100.00
56270;BME280;42176;43.240;27.880;2024-01-30T09:07:44;102383.78;;;2.18;100.00
56270;BME280;42176;43.240;27.880;2024-01-30T09:09:46;102394.63;;;1.55;100.00
56270;BME280;42176;43.240;27.880;2024-01-30T09:11:46;102395.81;;;0.78;100.00
56270;BME280;42176;43.240;27.880;2024-01-30T09:13:47;102390.91;;;1.17;100.00
56270;BME280;42176;43.240;27.880;2024-01-30T09:15:48;102397.00;;;1.85;100.00
56270;BME280;42176;43.240;27.880;2024-01-30T09:17:48;102374.69;;;2.85;100.00
56270;BME280;42176;43.240;27.880;2024-01-30T09:19:49;102371.94;;;2.44;100.00
56270;BME280;42176;43.240;27.880;2024-01-30T09:21:50;102397.06;;;1.87;100.00
56270;BME280;42176;43.240;27.880;2024-01-30T09:23:54;102384.38;;;0.92;100.00
56270;BME280;42176;43.240;27.880;2024-01-30T09:25:55;102384.63;;;1.64;100.00
56270;BME280;42176;43.240;27.880;2024-01-30T09:27:56;102367.19;;;2.18;100.00
56270;BME280;42176;43.240;27.880;2024-01-30T09:29:56;102369.75;;;2.92;100.00
56270;BME280;42176;43.240;27.880;2024-01-30T09:31:57;102359.63;;;2.42;100.00
56270;BME280;42176;43.240;27.880;2024-01-30T09:33:58;102390.09;;;1.87;100.00
56270;BME280;42176;43.240;27.880;2024-01-30T09:35:58;102394.16;;;1.46;100.00
56270;BME280;42176;43.240;27.880;2024-01-30T09:37:59;102367.13;;;2.16;100.00
56270;BME280;42176;43.240;27.880;2024-01-30T09:40:00;102362.00;;;2.75;100.00
56270;BME280;42176;43.240;27.880;2024-01-30T09:42:49;102353.25;;;2.94;100.00
56270;BME280;42176;43.240;27.880;2024-01-30T09:44:43;102360.75;;;2.11;100.00
56270;BME280;42176;43.240;27.880;2024-01-30T09:46:46;102365.38;;;1.46;100.00
56270;BME280;42176;43.240;27.880;2024-01-30T09:48:48;102377.72;;;2.19;100.00
56270;BME280;42176;43.240;27.880;2024-01-30T09:50:51;102374.13;;;2.73;100.00
56270;BME280;42176;43.240;27.880;2024-01-30T09:52:54;102368.88;;;3.52;100.00
56270;BME280;42176;43.240;27.880;2024-01-30T09:54:55;102373.34;;;2.94;100.00
56270;BME280;42176;43.240;27.880;2024-01-30T09:56:57;102353.72;;;2.28;100.00
56270;BME280;42176;43.240;27.880;2024-01-30T09:58:57;102365.56;;;1.32;100.00
56270;BME280;42176;43.240;27.880;2024-01-30T10:00:58;102365.09;;;1.92;100.00
56270;BME280;42176;43.240;27.880;2024-01-30T10:02:58;102368.19;;;2.57;100.00
56270;BME280;42176;43.240;27.880;2024-01-30T10:05:00;102346.84;;;3.27;100.00
56270;BME280;42176;43.240;27.880;2024-01-30T10:07:04;102337.88;;;2.82;100.00
56270;BME280;42176;43.240;27.880;2024-01-30T10:09:04;102357.16;;;2.27;100.00
56270;BME280;42176;43.240;27.880;2024-01-30T10:11:05;102357.38;;;1.43;100.00
56270;BME280;42176;43.240;27.880;2024-01-30T10:13:06;102355.84;;;2.17;100.00
56270;BME280;42176;43.240;27.880;2024-01-30T10:15:07;102338.44;;;2.75;100.00
56270;BME280;42176;43.240;27.880;2024-01-30T10:17:09;102345.41;;;3.14;100.00
56270;BME280;42176;43.240;27.880;2024-01-30T10:19:10;102361.31;;;3.38;100.00
56270;BME280;42176;43.240;27.880;2024-01-30T10:21:11;102343.16;;;3.64;100.00